Time;durP1;ratioP1;P1;durP2;ratioP2;P2;SDS_P1;SDS_P2;PMS_P1;PMS_P2;Temp;Humidity;BMP_temperature;BMP_pressure;BME280_temperature;BME280_humidity;BME280_pressure;Samples;Min_cycle;Max_cycle;Signal;HPM_P1;HPM_P2
2022/03/12 00:01:24;;;;;;;3.93;3.43;;;;;;;-0.43;59.57;100927.31;5050815;28;20210;-72
2022/03/12 00:03:50;;;;;;;5.10;4.17;;;;;;;-0.38;59.22;100946.25;5050582;28;20521;-72
2022/03/12 00:06:17;;;;;;;7.50;4.37;;;;;;;-0.27;59.47;100941.97;5050697;28;20233;-73
2022/03/12 00:08:44;;;;;;;4.53;4.13;;;;;;;-0.33;59.58;100948.25;5050428;28;20710;-73
2022/03/12 00:11:13;;;;;;;4.40;4.03;;;;;;;-0.31;60.01;100948.81;5050778;28;20171;-74
2022/03/12 00:13:39;;;;;;;4.10;3.70;;;;;;;-0.34;59.87;100933.19;5050591;28;20186;-73
2022/03/12 00:16:07;;;;;;;5.47;4.00;;;;;;;-0.46;59.58;100929.63;5050841;28;20183;-72
2022/03/12 00:18:35;;;;;;;4.80;4.30;;;;;;;-0.48;59.82;100921.81;5050569;28;20265;-72
2022/03/12 00:21:02;;;;;;;3.53;2.73;;;;;;;-0.41;59.60;100930.59;5050386;28;20171;-73
2022/03/12 00:23:29;;;;;;;6.00;3.83;;;;;;;-0.39;59.01;100919.63;5050492;28;20677;-72
2022/03/12 00:25:54;;;;;;;4.57;3.67;;;;;;;-0.50;58.58;100926.59;5049708;28;20671;-75
2022/03/12 00:28:20;;;;;;;3.83;3.30;;;;;;;-0.44;58.33;100932.91;5049794;28;20269;-73
2022/03/12 00:30:50;;;;;;;4.60;4.20;;;;;;;-0.42;57.73;100925.47;5050349;28;20252;-73
2022/03/12 00:33:18;;;;;;;4.10;3.47;;;;;;;-0.35;57.34;100918.94;5050334;28;20179;-71
2022/03/12 00:35:47;;;;;;;4.33;3.93;;;;;;;-0.26;57.20;100929.38;5050508;28;20179;-72
2022/03/12 00:38:12;;;;;;;6.23;4.00;;;;;;;-0.37;57.28;100917.53;5050372;28;20242;-73
2022/03/12 00:40:38;;;;;;;5.00;3.83;;;;;;;-0.34;57.49;100919.75;5050271;28;20186;-77
2022/03/12 00:43:04;;;;;;;5.83;4.03;;;;;;;-0.50;58.29;100915.84;5050139;28;20207;-73
2022/03/12 00:45:29;;;;;;;5.60;4.50;;;;;;;-0.61;59.03;100909.38;5050090;28;20236;-72
2022/03/12 00:47:55;;;;;;;3.90;3.30;;;;;;;-0.50;59.65;100918.53;5049963;28;20179;-73
2022/03/12 00:50:20;;;;;;;6.73;4.20;;;;;;;-0.63;60.06;100908.78;5050181;28;20171;-72
2022/03/12 00:52:46;;;;;;;6.43;3.80;;;;;;;-0.72;59.85;100901.28;5050101;28;20198;-72
2022/03/12 00:55:11;;;;;;;5.03;3.47;;;;;;;-0.73;59.46;100913.03;5050191;28;20377;-73
2022/03/12 00:57:36;;;;;;;4.00;3.60;;;;;;;-0.81;58.90;100903.44;5049703;28;20677;-72
2022/03/12 01:00:03;;;;;;;3.63;3.30;;;;;;;-0.74;58.47;100906.84;5050072;28;20167;-77
2022/03/12 01:02:28;;;;;;;3.03;2.57;;;;;;;-0.70;58.22;100902.69;5050111;28;20175;-73
2022/03/12 01:04:54;;;;;;;4.30;3.90;;;;;;;-0.68;57.83;100911.34;5049991;28;20464;-73
2022/03/12 01:07:20;;;;;;;4.00;3.57;;;;;;;-0.69;57.27;100904.34;5049892;28;20171;-72
2022/03/12 01:09:45;;;;;;;4.90;3.53;;;;;;;-0.63;57.40;100903.41;5050029;28;20250;-73
2022/03/12 01:12:10;;;;;;;4.73;4.20;;;;;;;-0.51;57.52;100897.28;5049789;28;20175;-73
2022/03/12 01:14:38;;;;;;;5.60;4.23;;;;;;;-0.50;56.58;100904.28;5049719;28;20539;-73
2022/03/12 01:17:05;;;;;;;4.47;3.67;;;;;;;-0.53;56.89;100902.06;5049766;28;20668;-72
2022/03/12 01:19:31;;;;;;;4.23;3.60;;;;;;;-0.48;56.14;100897.66;5049852;28;20428;-74
2022/03/12 01:21:56;;;;;;;5.40;3.80;;;;;;;-0.46;56.10;100897.41;5049902;28;20254;-72
2022/03/12 01:24:22;;;;;;;4.97;3.50;;;;;;;-0.35;56.47;100904.69;5049649;28;20568;-72
2022/03/12 01:26:47;;;;;;;4.93;3.90;;;;;;;-0.36;56.56;100905.75;5049552;28;20187;-73
2022/03/12 01:29:13;;;;;;;4.10;3.70;;;;;;;-0.33;56.32;100907.97;5049736;28;20187;-72
2022/03/12 01:31:38;;;;;;;8.07;3.83;;;;;;;-0.53;56.49;100892.16;5031990;28;20189;-73
2022/03/12 01:34:04;;;;;;;4.67;3.90;;;;;;;-0.45;56.82;100893.69;5049870;28;20175;-72
2022/03/12 01:36:31;;;;;;;5.43;4.00;;;;;;;-0.48;57.01;100894.16;5033579;28;20271;-73
2022/03/12 01:38:58;;;;;;;5.30;3.80;;;;;;;-0.43;56.91;100905.03;5053288;28;20528;-76
2022/03/12 01:41:32;;;;;;;4.23;3.83;;;;;;;-0.47;56.67;100885.88;5053416;28;20705;-73
2022/03/12 01:43:59;;;;;;;5.47;3.50;;;;;;;-0.40;56.43;100901.91;5053393;28;20175;-75
2022/03/12 01:46:34;;;;;;;3.53;3.17;;;;;;;-0.46;55.96;100892.06;5053517;28;20209;-76
2022/03/12 01:49:06;;;;;;;4.10;3.70;;;;;;;-0.33;55.55;100906.09;5053235;28;20171;-77
2022/03/12 01:51:31;;;;;;;3.43;3.13;;;;;;;-0.32;55.04;100888.13;5053312;28;20166;-72
2022/03/12 01:53:58;;;;;;;4.33;3.83;;;;;;;-0.38;55.58;100873.78;5053186;28;20530;-73
2022/03/12 01:56:27;;;;;;;5.40;3.30;;;;;;;-0.40;55.05;100885.78;5053161;28;20257;-74
2022/03/12 01:58:53;;;;;;;4.60;4.07;;;;;;;-0.42;55.39;100872.59;5052961;28;20173;-72
2022/03/12 02:01:18;;;;;;;5.70;3.87;;;;;;;-0.50;55.25;100883.66;5053192;28;20258;-75
2022/03/12 02:03:44;;;;;;;5.67;3.83;;;;;;;-0.62;55.99;100872.03;5052999;28;20167;-73
2022/03/12 02:06:15;;;;;;;5.80;3.10;;;;;;;-0.69;56.54;100880.19;5052960;28;20241;-74
2022/03/12 02:08:40;;;;;;;4.27;3.73;;;;;;;-0.74;56.37;100879.22;5052824;28;20595;-72
2022/03/12 02:11:07;;;;;;;6.70;4.27;;;;;;;-0.63;56.08;100875.78;5034964;28;20560;-75
2022/03/12 02:13:34;;;;;;;5.13;3.53;;;;;;;-0.60;55.21;100878.81;5053182;28;20561;-76
2022/03/12 02:16:08;;;;;;;4.20;3.80;;;;;;;-0.65;55.77;100867.94;5052567;28;20422;-72
2022/03/12 02:18:35;;;;;;;3.93;3.07;;;;;;;-0.70;55.74;100857.09;5052639;28;20566;-75
2022/03/12 02:21:00;;;;;;;5.70;3.80;;;;;;;-0.74;56.13;100850.53;5052959;28;20182;-75
2022/03/12 02:23:26;;;;;;;3.07;2.77;;;;;;;-0.77;56.85;100842.94;5052675;28;20414;-73
2022/03/12 02:25:51;;;;;;;4.57;3.47;;;;;;;-0.83;56.93;100829.63;5052637;28;20285;-75
2022/03/12 02:28:18;;;;;;;3.27;2.97;;;;;;;-0.83;56.52;100840.34;5052176;28;20271;-73
2022/03/12 02:30:51;;;;;;;6.07;3.63;;;;;;;-0.85;56.49;100855.84;5052885;28;20179;-74
2022/03/12 02:33:23;;;;;;;3.83;3.40;;;;;;;-0.79;56.27;100858.44;5052717;28;20171;-73
2022/03/12 02:35:49;;;;;;;3.67;3.23;;;;;;;-0.74;56.06;100866.63;5052620;28;20183;-72
2022/03/12 02:38:18;;;;;;;4.17;3.23;;;;;;;-0.57;55.63;100874.06;5052672;28;20217;-73
2022/03/12 02:40:44;;;;;;;3.63;3.33;;;;;;;-0.55;55.32;100869.28;5052365;28;20190;-73
2022/03/12 02:43:13;;;;;;;6.50;3.60;;;;;;;-0.63;55.32;100875.78;5052222;28;20178;-72
2022/03/12 02:45:39;;;;;;;3.70;3.37;;;;;;;-0.55;55.39;100862.06;5052307;28;20211;-73
2022/03/12 02:48:10;;;;;;;4.53;3.67;;;;;;;-0.51;54.60;100876.63;5051400;28;20221;-72
2022/03/12 02:50:37;;;;;;;5.17;3.90;;;;;;;-0.89;55.71;100860.81;5052319;28;20184;-75
2022/03/12 02:53:03;;;;;;;5.73;3.13;;;;;;;-0.95;55.31;100859.06;5052145;28;20168;-73
2022/03/12 02:55:34;;;;;;;2.80;2.53;;;;;;;-0.87;55.49;100853.38;5052030;28;20505;-76
2022/03/12 02:58:00;;;;;;;5.03;3.23;;;;;;;-0.86;55.93;100848.84;5051896;28;20172;-72
2022/03/12 03:00:26;;;;;;;3.00;2.80;;;;;;;-1.05;56.48;100846.19;5052077;28;20233;-74
2022/03/12 03:02:54;;;;;;;3.83;3.43;;;;;;;-0.93;56.94;100840.88;5051872;28;20167;-73
2022/03/12 03:05:26;;;;;;;3.63;3.33;;;;;;;-0.87;56.50;100855.25;5051987;28;20461;-74
2022/03/12 03:07:57;;;;;;;3.20;2.90;;;;;;;-0.73;56.89;100860.19;5051762;28;20167;-74
2022/03/12 03:10:34;;;;;;;3.83;3.37;;;;;;;-0.62;57.20;100862.13;5051893;28;20274;-73
2022/03/12 03:13:18;;;;;;;2.90;2.40;;;;;;;-0.75;55.85;100843.53;5051954;28;20213;-73
2022/03/12 03:15:49;;;;;;;4.47;2.97;;;;;;;-0.91;56.04;100846.84;5051619;28;20693;-74
2022/03/12 03:18:16;;;;;;;4.17;3.57;;;;;;;-1.13;57.13;100843.00;5051481;28;20175;-73
2022/03/12 03:20:43;;;;;;;3.77;3.33;;;;;;;-1.23;57.02;100833.59;5051961;28;20234;-73
2022/03/12 03:23:09;;;;;;;3.37;2.77;;;;;;;-1.14;56.65;100852.91;5051556;28;20583;-73
2022/03/12 03:25:35;;;;;;;3.43;2.83;;;;;;;-1.17;56.60;100837.25;5051494;28;20242;-73
2022/03/12 03:28:01;;;;;;;3.40;2.97;;;;;;;-1.19;56.09;100831.28;5051166;28;20183;-76
2022/03/12 03:30:33;;;;;;;3.87;3.40;;;;;;;-1.17;56.15;100850.66;5051379;28;20414;-76
2022/03/12 03:32:59;;;;;;;4.33;3.67;;;;;;;-1.05;56.18;100870.31;5051460;28;20232;-74
2022/03/12 03:35:24;;;;;;;3.37;2.77;;;;;;;-0.89;54.53;100879.59;5051272;28;20175;-73
2022/03/12 03:37:49;;;;;;;3.43;2.67;;;;;;;-0.80;54.99;100889.00;5051142;28;20175;-75
2022/03/12 03:40:15;;;;;;;3.97;2.80;;;;;;;-0.98;54.62;100870.25;5051338;28;20175;-75
2022/03/12 03:42:40;;;;;;;3.40;3.03;;;;;;;-1.05;55.63;100858.75;5051311;28;20175;-73
2022/03/12 03:45:06;;;;;;;4.77;3.43;;;;;;;-1.21;57.55;100858.31;5051175;28;20226;-73
2022/03/12 03:47:31;;;;;;;4.80;2.67;;;;;;;-1.31;57.28;100855.34;5050857;28;20675;-75
2022/03/12 03:49:56;;;;;;;4.50;3.27;;;;;;;-1.24;57.11;100856.09;5051391;28;20177;-73
2022/03/12 03:52:22;;;;;;;4.70;3.03;;;;;;;-1.37;56.34;100850.06;5032991;28;20686;-74
2022/03/12 03:54:47;;;;;;;3.53;2.80;;;;;;;-1.33;56.54;100846.69;5051115;28;20255;-74
2022/03/12 03:57:14;;;;;;;4.93;3.57;;;;;;;-1.24;56.08;100856.09;5050783;28;20178;-73
2022/03/12 03:59:40;;;;;;;3.90;3.27;;;;;;;-1.14;55.61;100858.25;5049832;28;20217;-74
2022/03/12 04:02:05;;;;;;;4.97;3.13;;;;;;;-1.09;55.07;100861.09;5050854;28;20406;-73
2022/03/12 04:04:33;;;;;;;3.63;2.83;;;;;;;-1.06;55.29;100854.44;5050724;28;20550;-74
2022/03/12 04:06:59;;;;;;;4.57;3.10;;;;;;;-1.07;55.35;100871.56;5050452;28;20172;-73
2022/03/12 04:09:24;;;;;;;4.30;3.30;;;;;;;-1.05;54.92;100873.00;5050727;28;20596;-74
2022/03/12 04:11:50;;;;;;;3.23;2.93;;;;;;;-1.03;55.54;100867.41;5050730;28;20259;-74
2022/03/12 04:14:15;;;;;;;4.07;3.43;;;;;;;-0.98;55.28;100886.34;5050404;28;20177;-73
2022/03/12 04:16:43;;;;;;;3.67;3.30;;;;;;;-0.92;54.85;100890.78;5050509;28;20199;-73
2022/03/12 04:19:09;;;;;;;4.00;3.33;;;;;;;-1.19;54.79;100882.22;5050453;28;20205;-75
2022/03/12 04:21:34;;;;;;;5.77;3.57;;;;;;;-1.08;55.65;100891.41;5050446;28;20414;-74
2022/03/12 04:24:01;;;;;;;4.17;3.70;;;;;;;-0.96;55.12;100884.25;5050352;28;20259;-73
2022/03/12 04:26:27;;;;;;;4.40;2.80;;;;;;;-1.05;55.73;100883.72;5050622;28;20176;-74
2022/03/12 04:28:53;;;;;;;4.97;4.00;;;;;;;-1.05;55.82;100866.81;5050083;28;20183;-72
2022/03/12 04:31:18;;;;;;;3.93;3.53;;;;;;;-0.99;54.75;100865.94;5050440;28;20421;-75
2022/03/12 04:33:44;;;;;;;3.77;2.87;;;;;;;-1.02;54.87;100872.53;5050247;28;20695;-73
2022/03/12 04:36:13;;;;;;;4.83;3.30;;;;;;;-1.12;54.59;100874.94;5050328;28;20190;-73
2022/03/12 04:38:39;;;;;;;5.83;3.47;;;;;;;-1.03;53.67;100886.16;5050619;28;20171;-76
2022/03/12 04:41:08;;;;;;;3.87;2.83;;;;;;;-1.07;54.11;100885.00;5050235;28;20931;-74
2022/03/12 04:43:33;;;;;;;5.00;2.40;;;;;;;-0.94;53.22;100898.25;5050258;28;20523;-74
2022/03/12 04:46:00;;;;;;;6.90;3.40;;;;;;;-0.91;53.43;100901.28;5050210;28;20619;-73
2022/03/12 04:48:27;;;;;;;3.20;2.67;;;;;;;-0.94;53.87;100900.91;5050043;28;20178;-74
2022/03/12 04:50:53;;;;;;;3.27;2.87;;;;;;;-0.88;54.29;100902.69;5050190;28;20422;-74
2022/03/12 04:53:20;;;;;;;4.27;2.63;;;;;;;-1.08;53.95;100902.13;5050047;28;20453;-74
2022/03/12 04:55:46;;;;;;;3.80;3.50;;;;;;;-1.04;54.41;100908.66;5050240;28;20178;-75
2022/03/12 04:58:12;;;;;;;3.87;2.90;;;;;;;-1.09;54.40;100903.16;5049927;28;20175;-73
2022/03/12 05:00:39;;;;;;;3.20;2.70;;;;;;;-1.28;55.05;100897.81;5050158;28;20246;-73
2022/03/12 05:03:12;;;;;;;3.63;3.33;;;;;;;-1.22;55.52;100896.91;5050137;28;20425;-74
2022/03/12 05:05:41;;;;;;;4.13;2.93;;;;;;;-1.28;56.20;100897.81;5050014;28;20206;-74
2022/03/12 05:08:18;;;;;;;3.07;2.77;;;;;;;-1.46;56.15;100886.22;5049808;28;20172;-73
2022/03/12 05:10:49;;;;;;;3.57;2.77;;;;;;;-1.38;56.40;100900.16;5050765;28;20171;-73
2022/03/12 05:13:15;;;;;;;3.43;2.73;;;;;;;-1.57;55.94;100895.81;5054080;28;20174;-73
2022/03/12 05:15:40;;;;;;;3.13;2.50;;;;;;;-1.42;55.94;100911.56;5053863;28;20417;-74
2022/03/12 05:18:11;;;;;;;4.47;2.83;;;;;;;-1.72;56.50;100906.88;5053700;28;20603;-75
2022/03/12 05:20:38;;;;;;;3.80;2.87;;;;;;;-1.61;57.10;100910.66;5053923;28;20175;-75
2022/03/12 05:23:07;;;;;;;3.57;3.10;;;;;;;-1.75;57.16;100917.19;5053799;28;20418;-73
2022/03/12 05:25:41;;;;;;;3.67;3.00;;;;;;;-1.76;57.07;100921.72;5053901;28;20471;-73
2022/03/12 05:28:11;;;;;;;3.43;2.63;;;;;;;-1.81;57.52;100930.41;5053495;28;20191;-73
2022/03/12 05:30:36;;;;;;;2.93;2.63;;;;;;;-1.82;57.08;100933.31;5053768;28;20179;-72
2022/03/12 05:33:04;;;;;;;2.87;2.63;;;;;;;-1.88;57.12;100926.97;5053590;28;20475;-72
2022/03/12 05:35:29;;;;;;;6.03;2.80;;;;;;;-1.80;57.50;100940.09;5053714;28;20258;-72
2022/03/12 05:37:55;;;;;;;3.87;2.50;;;;;;;-1.60;57.69;100944.44;5053402;28;20497;-72
2022/03/12 05:40:26;;;;;;;3.07;2.77;;;;;;;-1.48;57.78;100953.41;5053567;28;20781;-72
2022/03/12 05:42:55;;;;;;;2.87;2.57;;;;;;;-1.44;57.90;100945.78;5054596;28;20250;-72
2022/03/12 05:45:22;;;;;;;3.70;2.67;;;;;;;-1.48;57.90;100948.06;5053451;28;20976;-72
2022/03/12 05:47:49;;;;;;;4.57;2.83;;;;;;;-1.47;57.83;100944.34;5053179;28;20964;-72
2022/03/12 05:50:16;;;;;;;4.37;2.93;;;;;;;-1.65;58.10;100929.03;5053283;28;20406;-72
2022/03/12 05:52:48;;;;;;;3.53;3.17;;;;;;;-1.75;58.23;100942.09;5053207;28;20918;-72
2022/03/12 05:55:19;;;;;;;3.17;2.50;;;;;;;-1.81;57.96;100948.34;5035335;28;20422;-72
2022/03/12 05:57:44;;;;;;;3.87;3.23;;;;;;;-1.86;58.32;100945.50;5052856;28;20398;-72
2022/03/12 06:00:13;;;;;;;3.27;2.80;;;;;;;-1.85;58.57;100945.28;5053144;28;20516;-72
2022/03/12 06:02:48;;;;;;;4.00;3.20;;;;;;;-1.88;59.04;100940.38;5053060;28;20563;-72
2022/03/12 06:05:14;;;;;;;3.23;2.30;;;;;;;-1.85;59.41;100952.50;5053063;28;20854;-72
2022/03/12 06:07:44;;;;;;;4.30;3.47;;;;;;;-1.76;59.44;100959.22;5052697;28;20413;-71
2022/03/12 06:10:11;;;;;;;6.50;2.70;;;;;;;-1.69;59.36;100969.88;5052909;28;20194;-72
2022/03/12 06:12:39;;;;;;;7.83;2.87;;;;;;;-1.60;58.69;100973.91;5053080;28;20457;-72
2022/03/12 06:15:05;;;;;;;3.97;2.73;;;;;;;-1.40;58.47;100971.09;5052667;28;20483;-73
2022/03/12 06:17:31;;;;;;;4.13;3.10;;;;;;;-1.24;58.23;100979.41;5052551;28;20513;-73
2022/03/12 06:19:56;;;;;;;4.57;2.93;;;;;;;-1.00;58.27;100976.91;5053138;28;20509;-72
2022/03/12 06:22:21;;;;;;;3.63;2.67;;;;;;;-0.86;58.67;100981.09;5051576;28;20919;-72
2022/03/12 06:24:48;;;;;;;3.40;2.50;;;;;;;-0.80;58.48;100982.88;5034666;28;20191;-72
2022/03/12 06:27:17;;;;;;;1.50;1.07;;;;;;;-0.81;57.93;100973.19;5034599;28;20224;-72
2022/03/12 06:29:42;;;;;;;1.93;1.80;;;;;;;-0.61;55.71;100984.50;5052457;28;20968;-72
2022/03/12 06:32:09;;;;;;;2.30;1.70;;;;;;;-0.23;52.37;100979.94;5052579;28;20426;-72
2022/03/12 06:34:35;;;;;;;8.47;2.20;;;;;;;0.15;49.41;100974.25;5052702;28;20726;-72
2022/03/12 06:37:01;;;;;;;2.27;1.93;;;;;;;0.54;46.57;100987.03;5052305;28;20417;-72
2022/03/12 06:39:26;;;;;;;1.30;1.10;;;;;;;0.91;44.47;100988.72;5052513;28;20168;-73
2022/03/12 06:41:52;;;;;;;2.07;1.83;;;;;;;1.13;43.71;100984.34;5052459;28;20174;-73
2022/03/12 06:44:17;;;;;;;3.90;2.00;;;;;;;1.35;42.26;100976.50;5052314;28;20184;-73
2022/03/12 06:46:43;;;;;;;4.70;1.90;;;;;;;1.48;41.90;100987.81;5052122;28;20174;-72
2022/03/12 06:49:09;;;;;;;2.57;2.30;;;;;;;1.59;41.56;100986.16;5052099;28;20183;-72
2022/03/12 06:51:34;;;;;;;3.50;1.53;;;;;;;1.74;40.50;100989.16;5052468;28;20205;-72
2022/03/12 06:54:00;;;;;;;3.40;2.03;;;;;;;1.86;39.60;100991.78;5052164;28;20179;-72
2022/03/12 06:56:26;;;;;;;2.53;1.87;;;;;;;2.01;39.04;100996.66;5052187;28;20183;-72
2022/03/12 06:58:51;;;;;;;2.30;1.97;;;;;;;2.17;37.92;101000.44;5051971;28;20190;-72
2022/03/12 07:01:17;;;;;;;5.47;1.77;;;;;;;2.18;37.93;100989.44;5052148;28;20172;-73
2022/03/12 07:03:42;;;;;;;1.47;1.37;;;;;;;2.24;38.00;100987.66;5051968;28;20202;-72
2022/03/12 07:06:07;;;;;;;2.30;2.10;;;;;;;2.26;37.58;100980.94;5051858;28;20276;-72
2022/03/12 07:08:34;;;;;;;2.10;1.63;;;;;;;2.30;37.18;100983.97;5051621;28;20225;-73
2022/03/12 07:11:01;;;;;;;2.87;2.17;;;;;;;2.35;37.43;100984.88;5052070;28;20174;-74
2022/03/12 07:13:27;;;;;;;2.20;1.60;;;;;;;2.46;36.87;100985.88;5051784;28;20167;-73
2022/03/12 07:15:52;;;;;;;1.40;1.30;;;;;;;2.61;36.67;101001.50;5052024;28;20492;-75
2022/03/12 07:18:18;;;;;;;2.27;1.97;;;;;;;2.66;36.24;100990.78;5051625;28;20175;-73
2022/03/12 07:20:44;;;;;;;2.63;1.83;;;;;;;2.63;36.03;100984.00;5051828;28;20198;-72
2022/03/12 07:23:09;;;;;;;2.67;2.00;;;;;;;2.66;36.00;100988.09;5051897;28;20709;-72
2022/03/12 07:25:34;;;;;;;1.87;1.63;;;;;;;2.69;36.18;100987.59;5051521;28;20206;-73
2022/03/12 07:28:00;;;;;;;1.67;1.57;;;;;;;2.72;36.53;100991.66;5051121;28;20245;-73
2022/03/12 07:30:25;;;;;;;2.17;1.63;;;;;;;2.82;35.70;100983.75;5051467;28;20174;-73
2022/03/12 07:32:51;;;;;;;2.73;1.87;;;;;;;2.87;36.00;100991.91;5051201;28;20191;-73
2022/03/12 07:35:17;;;;;;;2.13;1.93;;;;;;;2.95;35.87;100988.81;5051115;28;20221;-73
2022/03/12 07:37:45;;;;;;;2.57;1.83;;;;;;;3.10;35.74;100990.91;5050995;28;20183;-73
2022/03/12 07:40:13;;;;;;;2.27;1.93;;;;;;;3.17;35.77;100992.34;5033429;28;20241;-73
2022/03/12 07:42:39;;;;;;;1.83;1.60;;;;;;;3.28;36.23;100999.53;5051220;28;20649;-72
2022/03/12 07:45:07;;;;;;;2.50;2.30;;;;;;;3.42;35.96;101005.38;5051031;28;20655;-72
2022/03/12 07:47:33;;;;;;;2.37;2.03;;;;;;;3.53;35.13;101001.75;5050775;28;20175;-73
2022/03/12 07:49:59;;;;;;;3.60;1.90;;;;;;;3.65;35.54;101008.94;5051321;28;20199;-73
2022/03/12 07:52:24;;;;;;;2.23;1.80;;;;;;;3.69;35.89;101010.88;5051515;28;20482;-75
2022/03/12 07:54:49;;;;;;;2.33;2.00;;;;;;;3.84;35.33;101013.75;5051079;28;20175;-73
2022/03/12 07:57:15;;;;;;;2.13;1.97;;;;;;;3.92;34.57;101003.56;5050744;28;20171;-73
2022/03/12 07:59:41;;;;;;;3.17;2.10;;;;;;;3.95;35.73;101014.69;5050811;28;20175;-72
2022/03/12 08:02:09;;;;;;;2.53;2.33;;;;;;;4.07;35.85;101019.97;5050849;28;20175;-73
2022/03/12 08:04:35;;;;;;;3.47;2.30;;;;;;;4.15;34.97;101004.09;5050911;28;20238;-73
2022/03/12 08:07:02;;;;;;;2.63;1.97;;;;;;;4.18;34.84;101008.97;5050606;28;20206;-72
2022/03/12 08:09:31;;;;;;;3.20;2.57;;;;;;;4.30;34.88;101011.53;5050858;28;20203;-72
2022/03/12 08:11:58;;;;;;;3.40;1.83;;;;;;;4.37;34.94;101017.56;5050529;28;20655;-72
2022/03/12 08:14:24;;;;;;;3.23;2.13;;;;;;;4.42;34.86;101001.38;5050428;28;20179;-73
2022/03/12 08:16:52;;;;;;;1.63;1.53;;;;;;;4.41;34.25;101010.56;5033010;28;20598;-72
2022/03/12 08:19:19;;;;;;;3.10;2.33;;;;;;;4.51;33.90;101015.25;5050658;28;20167;-72
2022/03/12 08:21:45;;;;;;;5.17;2.27;;;;;;;4.64;34.09;101014.84;5050572;28;20167;-72
2022/03/12 08:24:15;;;;;;;2.83;2.53;;;;;;;4.62;33.81;101003.44;5032551;28;20185;-73
2022/03/12 08:26:42;;;;;;;3.77;2.40;;;;;;;4.73;33.41;101007.84;5050425;28;20255;-72
2022/03/12 08:29:12;;;;;;;2.87;2.07;;;;;;;4.71;33.42;101006.50;5050316;28;20538;-72
2022/03/12 08:31:38;;;;;;;2.40;2.03;;;;;;;4.76;33.61;101015.47;5050607;28;20175;-72
2022/03/12 08:34:04;;;;;;;2.67;1.97;;;;;;;4.88;33.70;101006.34;5050463;28;20282;-74
2022/03/12 08:36:29;;;;;;;2.93;2.23;;;;;;;4.98;33.96;101006.44;5050824;28;20659;-74
2022/03/12 08:38:55;;;;;;;3.30;2.40;;;;;;;5.10;34.10;101003.53;5050155;28;20201;-74
2022/03/12 08:41:21;;;;;;;1.47;1.27;;;;;;;5.16;33.59;101003.28;5050824;28;20195;-74
2022/03/12 08:43:48;;;;;;;3.67;2.27;;;;;;;5.18;33.87;101001.13;5050536;28;20163;-72
2022/03/12 08:46:13;;;;;;;2.50;2.00;;;;;;;5.25;33.42;101000.91;5049546;28;20233;-72
2022/03/12 08:48:40;;;;;;;2.70;2.50;;;;;;;5.33;33.33;101001.22;5050050;28;20179;-72
2022/03/12 08:51:06;;;;;;;2.97;2.57;;;;;;;5.40;33.68;101006.41;5050295;28;20254;-75
2022/03/12 08:53:32;;;;;;;3.07;2.10;;;;;;;5.49;33.42;101002.09;5049995;28;20278;-74
2022/03/12 08:56:00;;;;;;;2.33;1.87;;;;;;;5.48;33.17;100995.06;5050166;28;20237;-72
2022/03/12 08:58:26;;;;;;;2.33;2.13;;;;;;;5.61;33.61;100991.06;5049826;28;20271;-72
2022/03/12 09:00:52;;;;;;;5.97;2.93;;;;;;;5.64;32.93;100993.22;5050165;28;20176;-71
2022/03/12 09:03:18;;;;;;;3.07;2.77;;;;;;;5.75;33.30;100994.09;5050485;28;20168;-72
2022/03/12 09:05:43;;;;;;;1.60;0.93;;;;;;;5.80;32.96;100986.81;5049993;28;20202;-71
2022/03/12 09:08:09;;;;;;;2.40;2.00;;;;;;;5.82;33.12;100990.06;5049779;28;20181;-71
2022/03/12 09:10:34;;;;;;;2.87;2.27;;;;;;;5.88;33.31;100980.84;5050255;28;20516;-72
2022/03/12 09:13:00;;;;;;;4.77;3.13;;;;;;;5.98;33.20;100993.66;5049976;28;20171;-72
2022/03/12 09:15:25;;;;;;;2.87;2.57;;;;;;;6.12;33.95;100985.84;5049652;28;20258;-72
2022/03/12 09:17:52;;;;;;;3.63;2.73;;;;;;;6.29;34.03;100991.03;5049850;28;20266;-72
2022/03/12 09:20:17;;;;;;;3.90;2.90;;;;;;;6.40;33.61;100988.06;5049882;28;20631;-72
2022/03/12 09:22:43;;;;;;;3.63;3.27;;;;;;;6.50;33.51;100988.03;5050055;28;20174;-72
2022/03/12 09:25:11;;;;;;;2.90;2.50;;;;;;;6.60;33.91;100987.25;5049743;28;20274;-72
2022/03/12 09:27:37;;;;;;;2.57;2.37;;;;;;;6.70;33.85;100981.81;5049472;28;20233;-72
2022/03/12 09:30:04;;;;;;;3.00;2.73;;;;;;;6.81;33.98;100972.59;5049714;28;20635;-72
2022/03/12 09:32:29;;;;;;;5.07;3.17;;;;;;;6.95;34.22;100972.03;5049306;28;20627;-72
2022/03/12 09:34:55;;;;;;;3.13;2.73;;;;;;;7.02;34.13;100965.22;5050059;28;20245;-72
2022/03/12 09:37:20;;;;;;;3.90;3.43;;;;;;;7.18;34.46;100960.53;5049726;28;20555;-71
2022/03/12 09:39:46;;;;;;;3.10;2.80;;;;;;;7.31;34.47;100970.03;5050298;28;20168;-72
2022/03/12 09:42:11;;;;;;;3.03;2.73;;;;;;;7.46;34.47;100969.97;5049606;28;20281;-72
2022/03/12 09:44:37;;;;;;;3.13;2.83;;;;;;;7.41;33.89;100956.41;5049631;28;20285;-72
2022/03/12 09:47:02;;;;;;;5.57;3.80;;;;;;;7.54;33.85;100966.69;5049398;28;20175;-71
2022/03/12 09:49:28;;;;;;;3.50;2.90;;;;;;;7.57;34.39;100957.97;5049591;28;20186;-72
2022/03/12 09:51:53;;;;;;;3.70;3.37;;;;;;;7.68;35.16;100965.00;5050055;28;20590;-72
2022/03/12 09:54:19;;;;;;;4.77;3.57;;;;;;;7.75;35.09;100957.34;5050083;28;20179;-71
2022/03/12 09:56:45;;;;;;;7.67;3.60;;;;;;;7.81;34.67;100944.53;5049929;28;20229;-73
2022/03/12 09:59:10;;;;;;;4.50;3.53;;;;;;;7.96;35.20;100943.63;5053078;28;20179;-72
2022/03/12 10:01:36;;;;;;;4.70;3.47;;;;;;;7.87;34.21;100946.13;5053094;28;20175;-72
2022/03/12 10:04:02;;;;;;;3.70;3.07;;;;;;;7.84;34.62;100933.09;5053083;28;20175;-72
2022/03/12 10:06:30;;;;;;;4.50;3.60;;;;;;;7.90;34.53;100939.31;5053051;28;20238;-72
2022/03/12 10:08:56;;;;;;;3.60;3.17;;;;;;;7.87;34.61;100937.16;5052820;28;20167;-71
2022/03/12 10:11:22;;;;;;;3.33;3.03;;;;;;;8.13;35.27;100929.66;5053157;28;20183;-72
2022/03/12 10:13:47;;;;;;;5.30;3.70;;;;;;;8.19;34.62;100933.94;5052499;28;20171;-72
2022/03/12 10:16:14;;;;;;;4.43;3.40;;;;;;;8.38;34.86;100934.09;5053086;28;20524;-72
2022/03/12 10:18:41;;;;;;;10.33;4.10;;;;;;;8.45;34.48;100932.69;5052610;28;20171;-71
2022/03/12 10:21:07;;;;;;;4.43;3.47;;;;;;;8.50;34.82;100934.53;5052836;28;20715;-72
2022/03/12 10:23:33;;;;;;;4.33;3.73;;;;;;;8.59;35.33;100943.75;5052925;28;20175;-72
2022/03/12 10:25:59;;;;;;;3.53;3.23;;;;;;;8.64;34.10;100940.97;5052648;28;20226;-72
2022/03/12 10:28:24;;;;;;;4.47;3.20;;;;;;;8.74;35.32;100934.63;5052276;28;20276;-72
2022/03/12 10:30:50;;;;;;;4.20;3.27;;;;;;;8.69;34.14;100935.47;5052644;28;20726;-71
2022/03/12 10:33:24;;;;;;;4.23;3.83;;;;;;;8.78;34.02;100927.47;5034666;28;20349;-72
2022/03/12 10:35:50;;;;;;;4.23;3.83;;;;;;;8.83;34.71;100928.25;5052553;28;20670;-71
2022/03/12 10:38:17;;;;;;;4.20;3.80;;;;;;;8.93;35.17;100930.88;5052667;28;20201;-72
2022/03/12 10:40:43;;;;;;;3.93;3.53;;;;;;;9.14;35.02;100934.19;5052500;28;20232;-72
2022/03/12 10:43:15;;;;;;;3.57;3.27;;;;;;;9.28;34.55;100919.88;5052625;28;20221;-71
2022/03/12 10:45:40;;;;;;;4.20;3.80;;;;;;;9.34;34.96;100924.97;5052236;28;20667;-72
2022/03/12 10:48:06;;;;;;;4.37;3.70;;;;;;;9.37;34.59;100927.09;5052093;28;20172;-72
2022/03/12 10:50:41;;;;;;;4.20;3.73;;;;;;;9.43;35.62;100914.22;5052330;28;20593;-72
2022/03/12 10:53:07;;;;;;;4.33;3.87;;;;;;;9.56;35.11;100929.06;5052218;28;20175;-71
2022/03/12 10:55:40;;;;;;;3.47;3.17;;;;;;;9.64;35.62;100929.22;5052072;28;20743;-71
2022/03/12 10:58:24;;;;;;;4.13;3.73;;;;;;;9.74;35.63;100911.91;5051779;28;20574;-72
2022/03/12 11:00:52;;;;;;;4.03;3.50;;;;;;;9.64;34.98;100915.59;5052156;28;20179;-72
2022/03/12 11:03:25;;;;;;;4.57;4.00;;;;;;;9.81;35.63;100918.59;5052059;28;20246;-72
2022/03/12 11:05:52;;;;;;;4.53;4.10;;;;;;;9.83;36.33;100927.31;5052306;28;20203;-72
2022/03/12 11:08:29;;;;;;;4.20;3.80;;;;;;;9.95;35.28;100915.97;5051294;28;20207;-72
2022/03/12 11:10:59;;;;;;;4.40;3.70;;;;;;;10.17;36.10;100914.56;5051962;28;20392;-71
2022/03/12 11:13:47;;;;;;;3.70;3.40;;;;;;;10.05;35.78;100907.63;5051811;28;20203;-71
2022/03/12 11:16:15;;;;;;;4.37;3.90;;;;;;;9.88;35.36;100912.81;5051913;28;20167;-71
2022/03/12 11:19:07;;;;;;;4.63;4.13;;;;;;;10.18;36.88;100910.72;5051717;28;20232;-71
2022/03/12 11:21:50;;;;;;;6.27;4.80;;;;;;;10.38;36.89;100915.88;5051756;28;20623;-72
2022/03/12 11:24:15;;;;;;;6.03;3.57;;;;;;;10.37;37.36;100920.53;5051522;28;20167;-72
2022/03/12 11:26:51;;;;;;;4.73;4.23;;;;;;;10.39;36.97;100895.63;5051595;28;20178;-71
2022/03/12 11:29:20;;;;;;;4.93;4.43;;;;;;;10.64;37.34;100902.59;5051444;28;20191;-72